Time;durP1;ratioP1;P1;durP2;ratioP2;P2;SDS_P1;SDS_P2;PMS_P1;PMS_P2;Temp;Humidity;BMP_temperature;BMP_pressure;BME280_temperature;BME280_humidity;BME280_pressure;Samples;Min_cycle;Max_cycle;Signal;HPM_P1;HPM_P2
2023/05/21 00:01:08;;;;;;;5.90;4.25;;;;;;;13.32;78.89;101742.19;5031028;28;20025;-76
2023/05/21 00:03:34;;;;;;;5.40;4.22;;;;;;;13.31;79.19;101751.91;5032116;28;20057;-76
2023/05/21 00:06:03;;;;;;;8.18;4.80;;;;;;;13.25;79.98;101743.56;5031364;28;20059;-76
2023/05/21 00:08:28;;;;;;;4.95;4.45;;;;;;;13.23;80.26;101741.03;5027066;28;20033;-76
2023/05/21 00:10:54;;;;;;;7.57;5.10;;;;;;;13.18;80.37;101730.75;5047667;28;20179;-76
2023/05/21 00:13:19;;;;;;;7.88;4.55;;;;;;;13.23;80.41;101733.13;5027593;28;20553;-76
2023/05/21 00:15:45;;;;;;;7.13;4.68;;;;;;;13.10;80.72;101734.88;5017826;28;20548;-76
2023/05/21 00:18:10;;;;;;;5.93;4.40;;;;;;;13.10;81.08;101727.78;5029772;28;20025;-76
2023/05/21 00:20:36;;;;;;;5.43;4.50;;;;;;;13.07;81.20;101716.59;5032191;28;20512;-76
2023/05/21 00:23:04;;;;;;;9.00;4.57;;;;;;;13.06;81.13;101725.47;5029107;28;20021;-76
2023/05/21 00:25:32;;;;;;;6.55;4.53;;;;;;;13.00;81.83;101732.03;5031152;28;20021;-76
2023/05/21 00:27:57;;;;;;;7.03;5.43;;;;;;;12.99;82.10;101722.44;5031355;28;20018;-76
2023/05/21 00:30:23;;;;;;;11.55;8.02;;;;;;;13.00;82.20;101725.91;5030183;28;20036;-76
2023/05/21 00:32:51;;;;;;;11.32;9.40;;;;;;;12.95;82.49;101726.25;5031074;28;20497;-76
2023/05/21 00:35:16;;;;;;;12.32;10.43;;;;;;;12.91;82.55;101722.13;5028537;28;20048;-76
2023/05/21 00:37:42;;;;;;;12.32;10.38;;;;;;;12.92;82.75;101725.59;5030897;28;20025;-76
2023/05/21 00:40:08;;;;;;;10.38;9.38;;;;;;;12.90;82.99;101720.44;5030138;28;20315;-76
2023/05/21 00:42:38;;;;;;;11.80;8.15;;;;;;;12.85;82.79;101723.41;5026034;28;20021;-76
2023/05/21 00:45:09;;;;;;;8.05;7.25;;;;;;;12.74;83.64;101714.50;5029934;28;20021;-76
2023/05/21 00:47:37;;;;;;;7.93;7.07;;;;;;;12.72;83.87;101721.69;5030052;28;20025;-76
2023/05/21 00:50:28;;;;;;;6.85;6.07;;;;;;;12.67;84.10;101729.09;5029286;28;20039;-76
2023/05/21 00:52:58;;;;;;;6.10;5.53;;;;;;;12.59;84.74;101716.41;5011844;28;20029;-77
2023/05/21 00:55:32;;;;;;;5.57;5.07;;;;;;;12.62;84.82;101715.34;5014465;28;20037;-76
2023/05/21 00:58:07;;;;;;;8.23;5.07;;;;;;;12.54;85.01;101714.09;5023816;28;20052;-78
2023/05/21 01:00:39;;;;;;;6.28;4.70;;;;;;;12.59;85.29;101718.22;5029973;28;20104;-78
2023/05/21 01:03:12;;;;;;;6.90;4.80;;;;;;;12.49;85.71;101721.50;5045824;28;20505;-76
2023/05/21 01:05:47;;;;;;;9.23;5.22;;;;;;;12.52;85.58;101716.00;5028492;28;20056;-76
2023/05/21 01:08:21;;;;;;;6.97;4.88;;;;;;;12.50;86.04;101715.25;5025915;28;20029;-76
2023/05/21 01:10:56;;;;;;;4.75;4.35;;;;;;;12.51;86.59;101716.94;5043721;28;20068;-77
2023/05/21 01:13:28;;;;;;;5.38;4.50;;;;;;;12.44;86.98;101717.47;5025807;28;20044;-76
2023/05/21 01:16:05;;;;;;;5.70;5.00;;;;;;;12.44;86.54;101715.69;5025893;28;20037;-76
2023/05/21 01:18:38;;;;;;;5.60;5.00;;;;;;;12.42;86.74;101712.31;5044140;28;20113;-76
2023/05/21 01:21:11;;;;;;;7.15;5.00;;;;;;;12.37;87.73;101714.38;5026730;28;20037;-76
2023/05/21 01:23:43;;;;;;;5.18;4.70;;;;;;;12.31;87.67;101706.88;5027126;28;20029;-76
2023/05/21 01:26:17;;;;;;;5.55;4.70;;;;;;;12.25;88.56;101709.94;5027564;28;20040;-76
2023/05/21 01:28:46;;;;;;;;;;;;;;;12.39;84.76;101709.84;5041632;28;20071;-77
2023/05/21 01:31:27;;;;;;;18.80;5.25;;;;;;;12.23;88.36;101714.47;5042226;28;19996;-77
2023/05/21 01:34:00;;;;;;;6.20;5.40;;;;;;;12.16;88.93;101715.84;5027299;28;20022;-76
2023/05/21 01:36:39;;;;;;;5.85;5.35;;;;;;;12.15;89.41;101716.78;5030222;28;20072;-77
2023/05/21 01:39:10;;;;;;;6.18;5.13;;;;;;;12.09;89.53;101707.50;5042646;28;20059;-76
2023/05/21 01:41:42;;;;;;;9.23;5.80;;;;;;;12.00;90.16;101718.63;5043170;28;20490;-76
2023/05/21 01:44:15;;;;;;;7.22;5.15;;;;;;;12.04;90.19;101714.03;5028272;28;20029;-76
2023/05/21 01:46:50;;;;;;;6.55;5.40;;;;;;;11.99;91.01;101718.72;5028521;28;20548;-76
2023/05/21 01:49:22;;;;;;;6.13;5.53;;;;;;;11.94;90.44;101708.47;5024958;28;20022;-76
2023/05/21 01:51:57;;;;;;;6.38;5.25;;;;;;;11.96;90.83;101716.28;5029122;28;20029;-77
2023/05/21 01:54:30;;;;;;;6.00;5.30;;;;;;;11.95;91.04;101709.31;5027593;28;20065;-78
2023/05/21 01:57:03;;;;;;;7.15;5.57;;;;;;;11.92;90.87;101716.50;5027844;28;20060;-77
2023/05/21 01:59:36;;;;;;;6.20;5.55;;;;;;;11.95;91.40;101706.69;5044896;28;20025;-76
2023/05/21 02:02:07;;;;;;;11.07;5.88;;;;;;;11.92;92.13;101711.22;5025925;28;20033;-76
2023/05/21 02:04:40;;;;;;;6.18;5.57;;;;;;;11.95;91.96;101706.69;5023761;28;20062;-76
2023/05/21 02:07:17;;;;;;;6.05;5.45;;;;;;;11.98;92.19;101703.84;5013368;28;20032;-76
2023/05/21 02:09:47;;;;;;;8.45;5.70;;;;;;;11.98;92.03;101696.78;5029392;28;20398;-76
2023/05/21 02:12:19;;;;;;;6.38;5.78;;;;;;;12.03;92.21;101697.34;5028865;28;20036;-77
2023/05/21 02:14:51;;;;;;;6.93;5.27;;;;;;;12.04;92.04;101692.91;5044589;28;20037;-76
2023/05/21 02:17:23;;;;;;;6.78;5.35;;;;;;;12.08;92.00;101691.75;5028519;28;20037;-77
2023/05/21 02:19:54;;;;;;;6.15;5.53;;;;;;;12.09;92.22;101696.94;5027865;28;20120;-77
2023/05/21 02:22:27;;;;;;;6.45;5.85;;;;;;;12.12;91.94;101695.88;5018272;28;20069;-76
2023/05/21 02:25:00;;;;;;;8.77;5.78;;;;;;;12.15;92.22;101695.69;5024236;28;20461;-77
2023/05/21 02:27:41;;;;;;;6.07;4.95;;;;;;;12.19;91.69;101694.53;5025799;28;20037;-77
2023/05/21 02:30:14;;;;;;;8.23;5.88;;;;;;;12.20;91.87;101693.56;5027127;28;20037;-77
2023/05/21 02:32:47;;;;;;;7.10;5.65;;;;;;;12.21;91.74;101692.63;5028086;28;20090;-77
2023/05/21 02:35:18;;;;;;;5.97;5.38;;;;;;;12.21;91.77;101695.25;5026830;28;20730;-77
2023/05/21 02:37:50;;;;;;;9.27;5.80;;;;;;;12.22;91.98;101694.31;5025005;28;20043;-77
2023/05/21 02:40:23;;;;;;;6.10;5.50;;;;;;;12.28;91.34;101695.69;5025996;28;20033;-77
2023/05/21 02:42:55;;;;;;;6.13;5.53;;;;;;;12.29;91.31;101687.66;5027270;28;20025;-77
2023/05/21 02:45:40;;;;;;;6.57;5.43;;;;;;;12.33;91.21;101688.31;5026774;28;20192;-77
2023/05/21 02:48:13;;;;;;;7.38;5.85;;;;;;;12.33;91.30;101683.88;5025514;28;20116;-77
2023/05/21 02:50:46;;;;;;;7.63;5.70;;;;;;;12.36;91.32;101688.94;5023617;28;20039;-77
2023/05/21 02:53:16;;;;;;;;;;;;;;;12.44;88.79;101686.66;5021395;28;20034;-77
2023/05/21 02:55:46;;;;;;;6.38;5.50;;;;;;;12.37;91.32;101677.44;5040107;28;19916;-75
2023/05/21 02:58:18;;;;;;;5.88;5.28;;;;;;;12.38;91.03;101671.19;5026668;28;20033;-77
2023/05/21 03:00:52;;;;;;;6.95;5.43;;;;;;;12.37;91.86;101668.66;5027565;28;20055;-77
2023/05/21 03:03:27;;;;;;;6.75;5.43;;;;;;;12.37;91.50;101679.22;5027986;28;20053;-77
2023/05/21 03:06:02;;;;;;;7.18;5.80;;;;;;;12.36;91.98;101666.97;5026690;28;20033;-77
2023/05/21 03:08:34;;;;;;;7.35;5.32;;;;;;;12.35;92.53;101666.13;5028614;28;20028;-77
2023/05/21 03:11:04;;;;;;;6.25;5.45;;;;;;;12.35;92.48;101666.13;5017171;28;20113;-77
2023/05/21 03:13:36;;;;;;;6.82;5.63;;;;;;;12.36;93.06;101670.47;5008869;28;20029;-77
2023/05/21 03:16:05;;;;;;;;;;;;;;;12.45;90.31;101661.94;5008954;28;20041;-77
2023/05/21 03:18:36;;;;;;;8.40;6.07;;;;;;;12.38;92.50;101657.16;5040846;28;20003;-77
2023/05/21 03:21:12;;;;;;;7.40;6.28;;;;;;;12.32;93.55;101663.72;5026341;28;20044;-77
2023/05/21 03:23:44;;;;;;;9.20;6.20;;;;;;;12.28;92.66;101664.03;5007804;28;20025;-77
2023/05/21 03:26:17;;;;;;;11.57;6.97;;;;;;;12.24;92.73;101658.97;5015896;28;20029;-77
2023/05/21 03:28:53;;;;;;;6.75;5.95;;;;;;;12.25;93.09;101665.09;5037605;28;20030;-77
2023/05/21 03:31:26;;;;;;;7.85;5.72;;;;;;;12.24;93.75;101660.75;5024305;28;20073;-77
2023/05/21 03:34:00;;;;;;;6.43;5.70;;;;;;;12.21;94.16;101660.97;5024771;28;20033;-77
2023/05/21 03:36:34;;;;;;;8.70;5.97;;;;;;;12.15;94.01;101650.81;5024252;28;20103;-77
2023/05/21 03:39:34;;;;;;;6.93;5.90;;;;;;;12.21;93.85;101664.44;5037203;28;20041;-77
2023/05/21 03:42:34;;;;;;;6.80;6.13;;;;;;;12.20;94.49;101664.56;5044804;28;20442;-77
2023/05/21 03:45:07;;;;;;;8.38;6.30;;;;;;;12.16;95.21;101650.72;5035066;28;20029;-77
2023/05/21 03:47:43;;;;;;;8.65;6.30;;;;;;;12.16;95.00;101661.28;5026286;28;20022;-77
2023/05/21 03:50:16;;;;;;;6.93;6.25;;;;;;;12.20;95.66;101661.91;5042346;28;20061;-77
2023/05/21 03:52:46;;;;;;;;;;;;;;;12.32;92.64;101665.50;5047521;28;20025;-77
2023/05/21 03:55:17;;;;;;;7.25;6.40;;;;;;;12.26;95.19;101660.66;5040920;28;19920;-77
2023/05/21 03:57:51;;;;;;;8.80;6.22;;;;;;;12.25;95.28;101649.25;5030910;28;20033;-77
2023/05/21 04:00:22;;;;;;;7.65;5.90;;;;;;;12.27;95.35;101652.63;5046620;28;20538;-77
2023/05/21 04:02:56;;;;;;;7.55;6.10;;;;;;;12.30;95.70;101657.69;5025152;28;20064;-77
2023/05/21 04:05:27;;;;;;;9.45;6.28;;;;;;;12.29;95.38;101658.63;5026772;28;20034;-77
2023/05/21 04:07:59;;;;;;;7.10;5.95;;;;;;;12.33;95.47;101659.28;5010007;28;20025;-76
2023/05/21 04:10:32;;;;;;;7.55;6.68;;;;;;;12.33;95.07;101657.47;5011767;28;20026;-77
2023/05/21 04:13:03;;;;;;;;;;;;;;;12.44;92.49;101654.13;5011510;28;20038;-77
2023/05/21 04:15:33;;;;;;;7.75;6.43;;;;;;;12.33;95.24;101662.75;5010116;28;19909;-77
2023/05/21 04:18:06;;;;;;;6.57;5.80;;;;;;;12.37;95.58;101666.88;5009824;28;20550;-77
2023/05/21 04:20:41;;;;;;;8.60;6.43;;;;;;;12.37;95.91;101663.38;5011415;28;20041;-76
2023/05/21 04:23:15;;;;;;;8.60;6.18;;;;;;;12.37;95.76;101664.22;5026187;28;20026;-76
2023/05/21 04:25:54;;;;;;;6.95;6.22;;;;;;;12.36;95.85;101662.53;5042985;28;20117;-77
2023/05/21 04:28:27;;;;;;;7.97;6.25;;;;;;;12.37;95.55;101661.59;5045651;28;20036;-77
2023/05/21 04:31:04;;;;;;;7.35;6.65;;;;;;;12.43;95.16;101666.47;5045522;28;20489;-77
2023/05/21 04:33:37;;;;;;;7.57;6.70;;;;;;;12.45;95.48;101661.94;5029982;28;20029;-77
2023/05/21 04:36:10;;;;;;;11.68;7.03;;;;;;;12.44;95.46;101660.25;5024789;28;20048;-76
2023/05/21 04:38:42;;;;;;;9.80;6.88;;;;;;;12.48;95.61;101663.53;5029789;28;20434;-77
2023/05/21 04:41:13;;;;;;;8.88;6.97;;;;;;;12.47;95.41;101665.31;5030753;28;20021;-77
2023/05/21 04:43:45;;;;;;;9.50;7.30;;;;;;;12.50;95.75;101665.09;5028980;28;20086;-76
2023/05/21 04:46:19;;;;;;;7.50;6.78;;;;;;;12.53;95.40;101664.03;5027721;28;20037;-77
2023/05/21 04:48:54;;;;;;;9.45;7.35;;;;;;;12.52;95.28;101672.91;5028625;28;20107;-76
2023/05/21 04:51:28;;;;;;;9.52;7.10;;;;;;;12.52;94.87;101673.75;5043217;28;20037;-76
2023/05/21 04:54:04;;;;;;;9.05;7.13;;;;;;;12.52;95.46;101668.47;5010097;28;20030;-76
2023/05/21 04:56:36;;;;;;;7.63;6.93;;;;;;;12.49;95.33;101670.50;5010681;28;20025;-77
2023/05/21 04:59:07;;;;;;;7.97;7.18;;;;;;;12.54;95.42;101671.00;5027617;28;20033;-76
2023/05/21 05:01:42;;;;;;;7.45;6.82;;;;;;;12.55;95.24;101673.53;5028187;28;20029;-76
2023/05/21 05:04:14;;;;;;;8.52;7.38;;;;;;;12.59;95.23;101679.47;5025273;28;20542;-76
2023/05/21 05:06:46;;;;;;;8.65;7.68;;;;;;;12.63;95.51;101680.94;5028657;28;20045;-76
2023/05/21 05:09:17;;;;;;;10.85;7.50;;;;;;;12.65;95.32;101673.75;5013544;28;20022;-76
2023/05/21 05:11:45;;;;;;;8.77;7.53;;;;;;;12.64;95.34;101679.97;5027318;28;20040;-77
2023/05/21 05:14:18;;;;;;;10.13;7.75;;;;;;;12.67;95.67;101671.00;5029337;28;20051;-76
2023/05/21 05:16:49;;;;;;;9.53;8.03;;;;;;;12.72;96.03;101668.88;5024809;28;20022;-76
2023/05/21 05:19:16;;;;;;;8.50;7.60;;;;;;;12.73;95.65;101665.28;5043819;28;20306;-76
2023/05/21 05:21:44;;;;;;;9.90;7.70;;;;;;;12.81;95.42;101669.09;5026497;28;20064;-76
2023/05/21 05:24:16;;;;;;;8.18;7.20;;;;;;;12.88;95.09;101672.16;5013917;28;20032;-76
2023/05/21 05:26:49;;;;;;;10.15;7.63;;;;;;;12.89;95.24;101667.72;5025645;28;20104;-76
2023/05/21 05:29:23;;;;;;;9.95;7.80;;;;;;;12.93;94.80;101670.03;5044143;28;20620;-76
2023/05/21 05:31:57;;;;;;;9.48;7.40;;;;;;;12.97;94.22;101668.00;5018721;28;20401;-76
2023/05/21 05:34:28;;;;;;;8.77;7.88;;;;;;;12.99;94.84;101666.09;5027625;28;20041;-76
2023/05/21 05:37:01;;;;;;;8.98;8.02;;;;;;;13.02;94.78;101672.00;5028499;28;20087;-76
2023/05/21 05:39:34;;;;;;;9.13;8.15;;;;;;;13.14;94.53;101673.78;5044926;28;20040;-76
2023/05/21 05:42:05;;;;;;;9.15;7.95;;;;;;;13.15;93.33;101666.69;5044372;28;20060;-76
2023/05/21 05:44:30;;;;;;;8.10;7.30;;;;;;;13.21;93.86;101668.94;4994750;28;20038;-76
2023/05/21 05:46:57;;;;;;;9.10;7.47;;;;;;;13.28;94.03;101664.91;5042116;28;20021;-75
2023/05/21 05:49:32;;;;;;;9.32;7.88;;;;;;;13.30;93.49;101672.72;5027092;28;20026;-76
2023/05/21 05:51:57;;;;;;;9.93;7.80;;;;;;;13.35;92.57;101662.66;5027401;28;20063;-76
2023/05/21 05:54:23;;;;;;;9.00;7.70;;;;;;;13.44;92.70;101676.03;5029431;28;20060;-76
2023/05/21 05:56:51;;;;;;;13.27;8.02;;;;;;;13.48;92.68;101666.09;5028506;28;20025;-76
2023/05/21 05:59:16;;;;;;;8.90;7.55;;;;;;;13.51;92.86;101668.50;5013175;28;20032;-77
2023/05/21 06:01:42;;;;;;;9.38;7.72;;;;;;;13.63;92.81;101672.06;5027379;28;20041;-75
2023/05/21 06:04:07;;;;;;;8.63;7.57;;;;;;;13.71;91.58;101675.84;5043311;28;20049;-75
2023/05/21 06:06:33;;;;;;;11.85;8.18;;;;;;;13.72;91.33;101672.22;5044815;28;20626;-76
2023/05/21 06:09:01;;;;;;;8.48;7.65;;;;;;;13.82;91.38;101676.84;5026652;28;20026;-75
2023/05/21 06:11:27;;;;;;;8.63;7.55;;;;;;;13.89;91.54;101663.03;5027480;28;20025;-75
2023/05/21 06:13:53;;;;;;;15.15;8.05;;;;;;;13.97;90.73;101663.28;5019670;28;20025;-76
2023/05/21 06:16:18;;;;;;;9.90;8.02;;;;;;;14.03;90.29;101664.66;5022528;28;20029;-76
2023/05/21 06:18:43;;;;;;;12.90;8.05;;;;;;;14.09;89.99;101664.19;5028733;28;20061;-75
2023/05/21 06:21:09;;;;;;;8.95;8.00;;;;;;;14.16;88.97;101670.69;5041284;28;20034;-76
2023/05/21 06:23:36;;;;;;;9.02;8.13;;;;;;;14.21;89.64;101670.34;5014039;28;20029;-76
2023/05/21 06:26:02;;;;;;;9.15;8.07;;;;;;;14.36;89.22;101661.22;5017463;28;20025;-76
2023/05/21 06:28:33;;;;;;;9.35;7.68;;;;;;;14.48;88.57;101668.28;5028243;28;20017;-76
2023/05/21 06:30:58;;;;;;;10.32;7.95;;;;;;;14.53;87.57;101662.63;5039553;28;20111;-76
2023/05/21 06:33:26;;;;;;;12.00;8.48;;;;;;;14.63;87.69;101668.88;5028731;28;20033;-76
2023/05/21 06:35:51;;;;;;;9.63;8.07;;;;;;;14.70;88.07;101670.09;5026816;28;20037;-76
2023/05/21 06:38:16;;;;;;;9.15;8.05;;;;;;;14.80;87.36;101664.91;5025992;28;20099;-76
2023/05/21 06:40:43;;;;;;;9.20;8.05;;;;;;;14.81;87.50;101656.88;5027246;28;20112;-76
2023/05/21 06:43:08;;;;;;;11.68;8.50;;;;;;;14.83;87.49;101659.41;5017624;28;20029;-77
2023/05/21 06:45:34;;;;;;;12.35;8.32;;;;;;;14.80;87.02;101665.75;5031880;28;20032;-76
2023/05/21 06:48:02;;;;;;;9.45;8.45;;;;;;;14.96;87.06;101671.53;5029258;28;20017;-76
2023/05/21 06:50:28;;;;;;;9.55;8.57;;;;;;;15.02;86.14;101664.91;5027585;28;20660;-76
2023/05/21 06:52:53;;;;;;;9.35;8.45;;;;;;;15.09;86.44;101657.31;5026945;28;20100;-76
2023/05/21 06:55:27;;;;;;;12.38;8.20;;;;;;;15.20;86.87;101663.41;5023774;28;20394;-76
2023/05/21 06:57:56;;;;;;;9.15;8.07;;;;;;;15.44;85.95;101665.06;5024238;28;20022;-76
2023/05/21 07:00:22;;;;;;;9.25;7.50;;;;;;;15.49;83.74;101658.41;5028000;28;20029;-76
2023/05/21 07:02:56;;;;;;;8.50;7.60;;;;;;;15.56;83.59;101656.09;5027632;28;20798;-75
2023/05/21 07:05:21;;;;;;;8.93;7.60;;;;;;;15.56;83.09;101650.81;5028368;28;20037;-76
2023/05/21 07:07:55;;;;;;;9.88;7.82;;;;;;;15.70;83.09;101649.72;5027682;28;20036;-76
2023/05/21 07:10:20;;;;;;;8.57;7.68;;;;;;;15.79;83.35;101651.59;5024304;28;20040;-76
2023/05/21 07:12:46;;;;;;;10.55;8.10;;;;;;;15.93;82.73;101641.50;5029536;28;20550;-76
2023/05/21 07:15:11;;;;;;;9.02;7.80;;;;;;;16.06;81.37;101641.34;5044389;28;20028;-76
2023/05/21 07:17:37;;;;;;;8.98;8.07;;;;;;;16.07;80.61;101637.72;5027192;28;20096;-75
2023/05/21 07:20:07;;;;;;;10.05;7.90;;;;;;;16.16;79.71;101634.28;5028287;28;20490;-75
2023/05/21 07:22:32;;;;;;;8.73;7.93;;;;;;;16.29;80.10;101634.91;5045008;28;20024;-76
2023/05/21 07:24:57;;;;;;;9.55;7.80;;;;;;;16.58;80.89;101636.88;5019284;28;20112;-76
2023/05/21 07:27:23;;;;;;;10.10;7.82;;;;;;;16.69;78.72;101638.63;5031143;28;20478;-76
2023/05/21 07:29:51;;;;;;;9.25;7.70;;;;;;;16.84;78.11;101638.16;5031615;28;20486;-75
2023/05/21 07:32:16;;;;;;;9.95;7.70;;;;;;;16.84;79.34;101635.50;5046598;28;20033;-76
2023/05/21 07:34:42;;;;;;;9.13;8.20;;;;;;;16.94;78.21;101642.66;5030935;28;20489;-75
2023/05/21 07:37:07;;;;;;;12.30;8.45;;;;;;;17.01;76.50;101638.47;5031988;28;20037;-75
2023/05/21 07:39:32;;;;;;;9.52;8.15;;;;;;;17.14;76.67;101637.22;5029994;28;20056;-75
2023/05/21 07:41:58;;;;;;;9.30;8.30;;;;;;;17.23;76.56;101639.09;5029483;28;20039;-75
2023/05/21 07:44:23;;;;;;;9.43;8.43;;;;;;;17.36;74.80;101636.16;5029939;28;20036;-75
2023/05/21 07:46:51;;;;;;;10.13;8.35;;;;;;;17.36;74.59;101637.97;5028328;28;20053;-75
2023/05/21 07:49:17;;;;;;;9.00;8.10;;;;;;;17.54;73.99;101631.81;5042610;28;20585;-75
2023/05/21 07:51:43;;;;;;;10.13;8.07;;;;;;;17.71;73.57;101632.16;5014667;28;20052;-76
2023/05/21 07:54:08;;;;;;;9.30;8.32;;;;;;;17.80;73.35;101628.66;5020701;28;20025;-76
2023/05/21 07:56:34;;;;;;;10.38;7.72;;;;;;;18.03;73.22;101630.03;5031492;28;20390;-76
2023/05/21 07:59:01;;;;;;;9.10;8.13;;;;;;;18.36;73.14;101622.50;5016475;28;20100;-77
2023/05/21 08:01:28;;;;;;;10.15;8.27;;;;;;;18.30;70.97;101623.09;5013440;28;20050;-76
2023/05/21 08:03:53;;;;;;;9.00;7.78;;;;;;;18.29;71.27;101635.56;5011040;28;20050;-75
2023/05/21 08:06:19;;;;;;;11.95;9.00;;;;;;;18.43;71.14;101634.28;5010970;28;20444;-76
2023/05/21 08:08:44;;;;;;;11.50;8.57;;;;;;;18.68;69.75;101630.97;5011671;28;20104;-77
2023/05/21 08:11:10;;;;;;;9.98;8.48;;;;;;;18.79;69.15;101628.13;5025361;28;20049;-76
2023/05/21 08:13:35;;;;;;;8.75;7.85;;;;;;;19.07;69.36;101633.47;5031440;28;20458;-76
2023/05/21 08:16:02;;;;;;;10.82;8.77;;;;;;;19.06;68.44;101629.09;5031442;28;20029;-76
2023/05/21 08:18:28;;;;;;;9.15;8.25;;;;;;;19.13;68.57;101630.19;5032063;28;20017;-75
2023/05/21 08:20:54;;;;;;;11.52;8.32;;;;;;;19.32;69.02;101632.75;5031051;28;20470;-75
2023/05/21 08:23:23;;;;;;;9.50;7.95;;;;;;;19.44;67.55;101632.50;5022364;28;20538;-75
2023/05/21 08:25:52;;;;;;;10.13;8.75;;;;;;;19.32;67.37;101624.75;5028600;28;20040;-76
2023/05/21 08:28:17;;;;;;;10.75;8.27;;;;;;;19.32;67.47;101618.56;5030513;28;20096;-75
2023/05/21 08:30:43;;;;;;;11.63;8.10;;;;;;;19.63;67.28;101619.91;5031772;28;20105;-75
2023/05/21 08:33:08;;;;;;;9.05;7.85;;;;;;;19.97;66.06;101611.97;5030826;28;20123;-75
2023/05/21 08:35:34;;;;;;;11.90;8.73;;;;;;;19.83;64.65;101609.88;5030950;28;20034;-74
2023/05/21 08:38:02;;;;;;;12.13;8.30;;;;;;;19.90;65.76;101618.09;5031172;28;20597;-75
2023/05/21 08:40:29;;;;;;;10.38;8.40;;;;;;;20.20;64.52;101606.13;5031364;28;20506;-76
2023/05/21 08:42:55;;;;;;;10.02;8.70;;;;;;;20.30;63.41;101597.00;5029350;28;20021;-76
2023/05/21 08:45:22;;;;;;;8.90;8.00;;;;;;;20.59;63.82;101602.03;5026781;28;20042;-76
2023/05/21 08:47:55;;;;;;;9.48;8.48;;;;;;;20.58;62.72;101603.03;5046556;28;20101;-74
2023/05/21 08:50:21;;;;;;;9.48;8.25;;;;;;;20.81;62.32;101599.75;5030395;28;20512;-76
2023/05/21 08:52:47;;;;;;;12.80;8.45;;;;;;;20.92;61.51;101599.50;5030222;28;20029;-75
2023/05/21 08:55:13;;;;;;;9.50;8.27;;;;;;;21.13;62.65;101596.34;5029969;28;20048;-76
2023/05/21 08:57:42;;;;;;;10.55;8.43;;;;;;;21.47;61.09;101601.63;5031605;28;20474;-76
2023/05/21 09:00:08;;;;;;;11.75;8.38;;;;;;;21.66;60.25;101590.59;5031301;28;20076;-76
2023/05/21 09:02:35;;;;;;;10.88;8.55;;;;;;;22.00;58.67;101592.22;5029603;28;20482;-76
2023/05/21 09:05:02;;;;;;;16.23;8.68;;;;;;;21.98;58.17;101594.25;5029804;28;20046;-76
2023/05/21 09:07:27;;;;;;;10.32;8.73;;;;;;;21.63;57.31;101593.63;5030491;28;20034;-75
2023/05/21 09:09:53;;;;;;;9.88;8.75;;;;;;;21.37;58.24;101598.28;5030609;28;20028;-75
2023/05/21 09:12:18;;;;;;;9.05;8.13;;;;;;;21.75;59.81;101594.97;5031276;28;20136;-76
2023/05/21 09:14:46;;;;;;;8.95;8.00;;;;;;;22.05;58.50;101596.13;5033511;28;20021;-75
2023/05/21 09:17:13;;;;;;;9.77;8.52;;;;;;;21.94;57.27;101595.59;5030467;28;20567;-75
2023/05/21 09:20:14;;;;;;;8.82;7.90;;;;;;;22.20;59.44;101589.06;5029229;28;20056;-76
2023/05/21 09:22:42;;;;;;;9.88;8.48;;;;;;;22.32;56.72;101594.06;5030781;28;20037;-76
2023/05/21 09:25:09;;;;;;;8.93;8.02;;;;;;;22.45;56.84;101587.16;5029568;28;20097;-77
2023/05/21 09:27:35;;;;;;;11.60;8.57;;;;;;;22.50;55.19;101600.88;5030033;28;20528;-74
2023/05/21 09:30:02;;;;;;;8.80;7.97;;;;;;;22.44;57.02;101598.91;5029645;28;20059;-75
2023/05/21 09:32:27;;;;;;;10.48;8.27;;;;;;;22.30;57.31;101593.38;5045404;28;20473;-75
2023/05/21 09:34:53;;;;;;;9.25;8.27;;;;;;;22.48;56.72;101597.53;5040309;28;20017;-76
2023/05/21 09:37:19;;;;;;;11.73;8.75;;;;;;;22.41;56.32;101593.84;5029051;28;20028;-75
2023/05/21 09:39:46;;;;;;;12.50;9.18;;;;;;;22.21;56.00;101589.91;5030266;28;20402;-74
2023/05/21 09:42:13;;;;;;;12.13;9.00;;;;;;;21.95;57.62;101590.06;5029386;28;20022;-75
2023/05/21 09:44:42;;;;;;;13.75;8.43;;;;;;;22.32;57.54;101586.84;5028942;28;20025;-76
2023/05/21 09:47:08;;;;;;;14.45;8.75;;;;;;;22.16;56.17;101592.25;5044719;28;20489;-75
2023/05/21 09:49:36;;;;;;;12.95;8.90;;;;;;;22.35;57.38;101581.13;5045438;28;20037;-76
2023/05/21 09:52:01;;;;;;;9.25;8.27;;;;;;;22.21;57.61;101579.16;5023409;28;20389;-74
2023/05/21 09:54:33;;;;;;;9.68;8.40;;;;;;;22.52;57.20;101577.41;5030310;28;20025;-75
2023/05/21 09:57:01;;;;;;;9.35;8.45;;;;;;;22.64;56.67;101577.84;5044697;28;20036;-75
2023/05/21 09:59:40;;;;;;;10.90;8.90;;;;;;;22.71;58.06;101581.50;5028301;28;20417;-76
2023/05/21 10:02:20;;;;;;;11.05;8.70;;;;;;;22.63;56.94;101580.72;5029667;28;20088;-75
2023/05/21 10:04:50;;;;;;;10.38;8.20;;;;;;;22.97;55.89;101573.19;5046050;28;20041;-76
2023/05/21 10:07:20;;;;;;;10.38;8.70;;;;;;;23.23;55.70;101580.09;5024726;28;20523;-76
2023/05/21 10:09:49;;;;;;;9.90;8.90;;;;;;;23.58;54.34;101574.13;5030562;28;20036;-76
2023/05/21 10:12:16;;;;;;;8.95;8.15;;;;;;;23.60;54.69;101561.34;5030157;28;20056;-76
2023/05/21 10:14:47;;;;;;;11.35;8.82;;;;;;;23.55;54.31;101571.78;5045199;28;20040;-74
2023/05/21 10:17:13;;;;;;;10.05;8.82;;;;;;;23.57;53.91;101556.31;5029925;28;20030;-75
2023/05/21 10:19:40;;;;;;;12.65;9.52;;;;;;;23.55;53.72;101557.50;5045191;28;20036;-75
2023/05/21 10:22:06;;;;;;;13.20;9.40;;;;;;;23.51;54.61;101551.66;5030338;28;20061;-76
2023/05/21 10:24:33;;;;;;;10.38;9.18;;;;;;;23.49;54.66;101551.00;5029547;28;20032;-76
2023/05/21 10:27:03;;;;;;;11.23;9.23;;;;;;;23.62;54.85;101545.06;5012361;28;20478;-76
2023/05/21 10:29:30;;;;;;;10.80;9.52;;;;;;;23.54;55.08;101550.44;5010529;28;20033;-76
2023/05/21 10:31:57;;;;;;;11.25;10.02;;;;;;;23.38;54.53;101554.13;5020959;28;20017;-75
2023/05/21 10:34:23;;;;;;;11.15;9.55;;;;;;;23.48;54.49;101543.94;5028630;28;20021;-75
2023/05/21 10:36:50;;;;;;;11.85;9.25;;;;;;;23.60;55.17;101534.47;5044539;28;20529;-75
2023/05/21 10:39:18;;;;;;;12.13;9.30;;;;;;;23.87;53.98;101535.72;5029160;28;20063;-76
2023/05/21 10:42:02;;;;;;;15.00;10.10;;;;;;;24.00;54.67;101522.47;5028883;28;20147;-76
2023/05/21 10:44:45;;;;;;;11.68;10.05;;;;;;;24.13;52.68;101519.16;5024349;28;20030;-75
2023/05/21 10:47:30;;;;;;;16.50;10.30;;;;;;;24.27;53.43;101520.16;5028992;28;20045;-76
2023/05/21 10:50:14;;;;;;;12.50;11.10;;;;;;;23.84;52.62;101537.94;5028856;28;20162;-75
2023/05/21 10:53:02;;;;;;;15.52;11.40;;;;;;;23.66;53.23;101532.94;5029616;28;20075;-75
2023/05/21 10:55:36;;;;;;;12.60;10.60;;;;;;;23.58;53.06;101517.69;5028198;28;20026;-75
2023/05/21 10:58:22;;;;;;;12.18;10.32;;;;;;;23.77;54.06;101512.84;5032470;28;20437;-75
2023/05/21 11:00:52;;;;;;;12.40;10.20;;;;;;;23.83;53.53;101510.25;5029734;28;20608;-75
2023/05/21 11:03:18;;;;;;;16.88;10.25;;;;;;;23.91;53.68;101506.63;5031848;28;20620;-75
2023/05/21 11:05:51;;;;;;;14.05;10.60;;;;;;;23.74;53.56;101509.50;5033317;28;20033;-75
2023/05/21 11:08:30;;;;;;;12.15;10.30;;;;;;;23.95;54.35;101497.16;5032938;28;20029;-75
2023/05/21 11:10:57;;;;;;;14.85;11.18;;;;;;;24.10;53.21;101507.94;5032953;28;20033;-75
2023/05/21 11:13:26;;;;;;;13.82;9.63;;;;;;;24.36;53.35;101498.38;5033750;28;20022;-75
2023/05/21 11:16:15;;;;;;;17.13;11.05;;;;;;;24.54;53.08;101494.47;5029770;28;20021;-75
2023/05/21 11:18:40;;;;;;;12.77;10.65;;;;;;;24.45;50.86;101492.91;5013842;28;20026;-75
2023/05/21 11:21:09;;;;;;;14.05;11.00;;;;;;;24.18;52.62;101491.69;5013344;28;20017;-75
2023/05/21 11:23:50;;;;;;;12.55;10.85;;;;;;;24.34;52.92;101484.28;5011548;28;20427;-75
2023/05/21 11:26:23;;;;;;;12.27;11.02;;;;;;;24.36;51.83;101476.84;5019025;28;20025;-75
2023/05/21 11:29:06;;;;;;;11.93;10.73;;;;;;;24.66;53.15;101471.41;5014245;28;20391;-76
2023/05/21 11:31:36;;;;;;;12.80;10.07;;;;;;;24.86;51.86;101467.09;5026373;28;20088;-75
2023/05/21 11:34:27;;;;;;;13.35;10.93;;;;;;;24.85;52.12;101470.81;5018423;28;20022;-76
2023/05/21 11:37:27;;;;;;;12.25;10.95;;;;;;;24.66;52.55;101464.16;5011743;28;20038;-75